Jakarta Observatory, Indonesia

12:51 PM WIT on September 02, 2014 (GMT +0700)
ZOBBIS METEO | Change Station
CLOSE
Current Station
Personal Weather Station
Location: Jakarta, Indonesia
Elevation: 121 ft
Nearby Weather Stations

Elev 121 ft 6.29 °S, 106.81 °E | Updated 1 minute ago

Partly Cloudy
Partly Cloudy
92.6 °F
Feels Like 99 °F
N
3.0
Wind Variable Wind from SSE
Gusts 3.0 mph

Today
High -- | Low -- °F
--% Chance of Precip.
Yesterday
High -- | Low -- °F
Precip. -- in
5:52 AM 5:52 PM
Waxing Crescent, 48% visible
Pressure 29.83 in
Visibility 6.2 miles
Clouds Few 2000 ft
Heat Index 99 °F
Dew Point 71 °F
Humidity 49%
Rainfall 0.00 in
Snow Depth Not available.
UV 14 out of 12
Pollen Not available.
Air Quality Not available.
Flu Activity Not available.
METAR WIII 020530Z 04009KT 9999 FEW020 32/22 Q1010 NOSIG

More Conditions Fewer Conditions

Pressure 29.83 in
Visibility 6.2 miles
Clouds Few 2000 ft
Heat Index 99 °F
Dew Point 71 °F
Humidity 49%
Rainfall 0.00 in
Snow Depth Not available.
UV 14 out of 12
Pollen Not available.
Air Quality Not available.
Flu Activity Not available.
METAR WIII 020530Z 04009KT 9999 FEW020 32/22 Q1010 NOSIG

More Conditions Fewer Conditions

10-Day Weather Forecast

Almanac

Astronomy

Sep. 02, 2014 Rise Set
Actual Time 5:52 AM WIT 5:52 PM WIT
Civil Twilight 5:31 AM WIT 6:13 PM WIT
Nautical Twilight 5:07 AM WIT 6:37 PM WIT
Astronomical Twilight 4:43 AM WIT 7:01 PM WIT
Moon 11:20 AM WIT No Moon Set
Length of Visible Light 12h 41m
Length of Day
11h 59m
Tomorrow will be 0m 19s longer.
Waxing Crescent, 48% of the Moon is Illuminated
Today
Waxing Crescent
Sep 2
First Quarter
Sep 8
Full
Sep 15
Last Quarter
Sep 24
New

Yesterday's Extremes

Country Highs Country Lows

Community

WunderPhotos

Upload Photos

1,749,579 photos uploaded!

WunderBlogs® & News

Nearby

Snow Depth

Not available.

Earthquake Activity

City Distance Mag. Time & Date
No recent earthquake activity has been reported nearby.
Minimum magnitude displayed is 2.5.

Coastal Water Temperatures

Place Temperature
No Stations Reporting

Nearby Weather Stations